Time;durP1;ratioP1;P1;durP2;ratioP2;P2;SDS_P1;SDS_P2;PMS_P1;PMS_P2;Temp;Humidity;BMP_temperature;BMP_pressure;BME280_temperature;BME280_humidity;BME280_pressure;Samples;Min_cycle;Max_cycle;Signal;HPM_P1;HPM_P2
2022/12/16 00:01:21;;;;;;;12.83;9.20;;;-2.60;89.40;;;;;;935184;149;27550;-81
2022/12/16 00:03:46;;;;;;;14.77;9.03;;;-2.60;89.50;;;;;;937250;149;27420;-81
2022/12/16 00:06:13;;;;;;;14.70;9.17;;;-2.60;89.60;;;;;;936908;149;27423;-81
2022/12/16 00:08:39;;;;;;;13.27;8.50;;;-2.60;89.60;;;;;;937449;149;27426;-79
2022/12/16 00:11:06;;;;;;;17.37;11.17;;;-2.60;89.60;;;;;;937309;149;27463;-79
2022/12/16 00:13:33;;;;;;;15.07;9.60;;;-2.50;89.60;;;;;;937507;149;27435;-80
2022/12/16 00:15:59;;;;;;;13.77;9.40;;;-2.60;89.50;;;;;;936769;149;27409;-81
2022/12/16 00:18:26;;;;;;;18.93;11.30;;;-2.60;89.50;;;;;;938992;149;27268;-80
2022/12/16 00:20:52;;;;;;;15.77;9.80;;;-2.60;89.30;;;;;;937742;149;27297;-81
2022/12/16 00:23:19;;;;;;;14.43;9.93;;;-2.60;89.30;;;;;;938227;149;27362;-81
2022/12/16 00:25:46;;;;;;;15.43;10.23;;;-2.60;90.00;;;;;;939342;149;27408;-81
2022/12/16 00:28:12;;;;;;;15.97;8.93;;;-2.60;89.20;;;;;;938938;149;27382;-82
2022/12/16 00:30:39;;;;;;;13.53;9.20;;;-2.60;89.20;;;;;;937720;149;27328;-81
2022/12/16 00:33:05;;;;;;;17.13;9.70;;;-2.60;89.20;;;;;;940064;149;27329;-80
2022/12/16 00:35:32;;;;;;;14.63;9.27;;;-2.60;89.20;;;;;;938099;149;27347;-79
2022/12/16 00:37:59;;;;;;;15.10;9.30;;;-2.70;89.20;;;;;;937174;149;27369;-81
2022/12/16 00:40:25;;;;;;;14.27;10.00;;;-2.70;89.20;;;;;;938304;149;27336;-81
2022/12/16 00:42:52;;;;;;;15.03;9.73;;;-2.70;89.20;;;;;;936165;149;27389;-80
2022/12/16 00:45:18;;;;;;;14.87;10.13;;;-2.70;89.20;;;;;;938169;149;27393;-81
2022/12/16 00:47:45;;;;;;;14.67;9.33;;;-2.70;89.30;;;;;;938740;149;27259;-80
2022/12/16 00:50:11;;;;;;;13.17;9.53;;;-2.80;89.90;;;;;;938515;149;27456;-81
2022/12/16 00:52:38;;;;;;;16.10;9.80;;;-2.70;88.50;;;;;;937279;149;27324;-81
2022/12/16 00:55:05;;;;;;;17.07;9.83;;;-2.80;89.20;;;;;;940234;149;27858;-81
2022/12/16 00:57:31;;;;;;;14.60;8.93;;;-2.80;89.30;;;;;;937760;149;27278;-81
2022/12/16 00:59:58;;;;;;;15.03;9.80;;;-2.80;89.30;;;;;;937308;149;27298;-80
2022/12/16 01:02:24;;;;;;;14.23;9.57;;;-2.80;89.40;;;;;;936410;149;27362;-81
2022/12/16 01:04:52;;;;;;;12.07;9.23;;;-2.80;89.40;;;;;;940876;148;27384;-81
2022/12/16 01:07:18;;;;;;;13.07;9.23;;;-2.80;89.40;;;;;;932681;149;27430;-80
2022/12/16 01:09:44;;;;;;;11.93;8.93;;;-2.90;89.40;;;;;;951372;146;27332;-81
2022/12/16 01:12:11;;;;;;;12.90;8.37;;;-2.80;89.50;;;;;;950270;146;27329;-79
2022/12/16 01:14:37;;;;;;;12.97;8.93;;;-2.80;89.50;;;;;;951009;146;27311;-79
2022/12/16 01:17:04;;;;;;;16.57;9.87;;;-2.90;89.50;;;;;;951258;146;27340;-81
2022/12/16 01:19:31;;;;;;;13.70;9.67;;;-2.90;89.50;;;;;;950948;146;27331;-80
2022/12/16 01:21:57;;;;;;;13.77;9.13;;;-2.90;89.40;;;;;;952966;146;27377;-81
2022/12/16 01:24:24;;;;;;;14.03;8.67;;;-2.90;89.50;;;;;;953339;146;27404;-81
2022/12/16 01:26:50;;;;;;;16.03;10.07;;;-2.90;89.50;;;;;;951870;146;27360;-79
2022/12/16 01:29:17;;;;;;;13.00;8.67;;;-2.90;89.60;;;;;;953702;146;27338;-81
2022/12/16 01:31:43;;;;;;;15.93;9.60;;;-2.90;89.60;;;;;;951823;147;27379;-81
2022/12/16 01:34:10;;;;;;;15.73;10.03;;;-2.90;89.60;;;;;;952718;147;27653;-80
2022/12/16 01:36:37;;;;;;;14.73;9.37;;;-3.00;89.50;;;;;;952783;147;27308;-81
2022/12/16 01:39:04;;;;;;;11.83;8.97;;;-3.00;89.60;;;;;;954021;147;27407;-81
2022/12/16 01:41:30;;;;;;;15.70;9.03;;;-3.00;89.60;;;;;;953223;147;27445;-81
2022/12/16 01:44:12;;;;;;;15.00;9.77;;;-3.00;89.60;;;;;;952046;147;27468;-81
2022/12/16 01:46:38;;;;;;;15.17;8.73;;;-3.00;89.60;;;;;;933668;149;27824;-81
2022/12/16 01:49:08;;;;;;;15.43;9.00;;;-3.00;89.70;;;;;;950510;146;27631;-81
2022/12/16 01:51:37;;;;;;;15.90;9.30;;;-3.00;89.60;;;;;;947171;148;27374;-81
2022/12/16 01:54:07;;;;;;;10.77;7.93;;;-3.00;89.70;;;;;;948160;148;27291;-80
2022/12/16 01:56:33;;;;;;;13.83;8.70;;;-3.10;89.60;;;;;;934524;148;27347;-80
2022/12/16 01:59:00;;;;;;;13.87;8.40;;;-3.10;89.60;;;;;;948711;148;27431;-81
2022/12/16 02:01:26;;;;;;;12.67;8.27;;;-3.10;89.70;;;;;;949888;148;27333;-81
2022/12/16 02:03:53;;;;;;;15.07;10.13;;;-3.20;89.60;;;;;;950300;148;27336;-81
2022/12/16 02:06:19;;;;;;;15.73;9.30;;;-3.20;89.60;;;;;;942614;148;27438;-79
2022/12/16 02:08:46;;;;;;;12.80;9.13;;;-3.20;89.70;;;;;;940601;149;27484;-81
2022/12/16 02:11:15;;;;;;;11.43;7.93;;;-3.20;89.80;;;;;;940693;149;27652;-80
2022/12/16 02:13:45;;;;;;;14.33;9.27;;;-3.20;89.60;;;;;;940722;149;27643;-80
2022/12/16 02:16:23;;;;;;;13.70;9.80;;;-3.20;89.60;;;;;;938413;149;27332;-79
2022/12/16 02:19:26;;;;;;;14.00;9.23;;;-3.20;89.70;;;;;;940525;149;27453;-81
2022/12/16 02:22:05;;;;;;;15.40;9.83;;;-3.30;89.60;;;;;;940865;149;27499;-80
2022/12/16 02:24:50;;;;;;;13.63;9.27;;;-3.30;89.60;;;;;;942064;149;27356;-80
2022/12/16 02:27:31;;;;;;;13.53;9.30;;;-3.30;89.60;;;;;;939775;149;27316;-80
2022/12/16 02:30:23;;;;;;;13.10;8.07;;;-3.30;89.70;;;;;;939816;149;27350;-80
2022/12/16 02:32:55;;;;;;;15.90;8.67;;;-3.40;89.60;;;;;;940174;149;27427;-80
2022/12/16 02:35:25;;;;;;;13.03;9.27;;;-3.40;89.60;;;;;;939832;149;27345;-80
2022/12/16 02:37:52;;;;;;;12.73;8.57;;;-3.40;89.60;;;;;;938889;149;27377;-80
2022/12/16 02:40:21;;;;;;;17.23;9.03;;;-3.50;89.50;;;;;;939946;149;27375;-80
2022/12/16 02:42:47;;;;;;;12.30;9.10;;;-3.50;89.60;;;;;;929256;149;27379;-80
2022/12/16 02:45:17;;;;;;;13.17;8.90;;;-3.50;89.60;;;;;;940899;149;27363;-80
2022/12/16 02:47:43;;;;;;;13.60;8.93;;;-3.50;89.60;;;;;;939271;149;27353;-79
2022/12/16 02:50:31;;;;;;;15.73;9.23;;;-3.50;89.70;;;;;;941168;149;27381;-79
2022/12/16 02:52:58;;;;;;;10.80;8.23;;;-3.50;89.70;;;;;;940496;149;27872;-80
2022/12/16 02:55:24;;;;;;;14.30;8.37;;;-3.50;89.70;;;;;;941097;149;27609;-81
2022/12/16 02:57:51;;;;;;;14.83;9.33;;;-3.60;89.70;;;;;;938770;149;27364;-80
2022/12/16 03:00:18;;;;;;;13.00;8.83;;;-3.60;89.80;;;;;;937944;149;27458;-81
2022/12/16 03:03:05;;;;;;;13.90;9.17;;;-3.60;89.80;;;;;;939608;149;27364;-80
2022/12/16 03:05:35;;;;;;;11.73;8.73;;;-3.60;89.90;;;;;;940558;149;27430;-80
2022/12/16 03:08:04;;;;;;;12.30;8.13;;;-3.60;89.90;;;;;;938396;149;28326;-80
2022/12/16 03:10:30;;;;;;;13.00;9.43;;;-3.70;89.90;;;;;;941243;149;27381;-80
2022/12/16 03:12:57;;;;;;;13.83;8.70;;;-3.70;89.90;;;;;;937747;149;27305;-81
2022/12/16 03:15:24;;;;;;;13.83;8.33;;;-3.70;89.90;;;;;;938879;149;27420;-80
2022/12/16 03:17:50;;;;;;;13.23;8.53;;;-3.70;90.00;;;;;;939996;149;27477;-76
2022/12/16 03:20:26;;;;;;;12.37;8.87;;;-3.70;90.00;;;;;;940043;149;27360;-76
2022/12/16 03:22:52;;;;;;;15.67;9.07;;;-3.70;90.00;;;;;;940181;149;27318;-76
2022/12/16 03:25:19;;;;;;;14.43;9.83;;;-3.70;90.00;;;;;;940905;149;27286;-76
2022/12/16 03:28:04;;;;;;;13.90;9.17;;;-3.70;90.00;;;;;;940099;149;27298;-76
2022/12/16 03:30:33;;;;;;;13.67;9.53;;;-3.80;90.10;;;;;;939127;149;27274;-77
2022/12/16 03:33:03;;;;;;;12.37;8.43;;;-3.80;90.00;;;;;;937359;149;27357;-76
2022/12/16 03:35:33;;;;;;;15.80;9.20;;;-3.80;90.00;;;;;;939324;149;28591;-76
2022/12/16 03:37:59;;;;;;;14.90;9.13;;;-3.80;90.00;;;;;;934237;149;27670;-76
2022/12/16 03:40:26;;;;;;;13.17;8.77;;;-3.80;90.00;;;;;;938631;149;27732;-76
2022/12/16 03:42:52;;;;;;;16.00;8.70;;;-3.80;90.00;;;;;;939207;149;27651;-76
2022/12/16 03:45:19;;;;;;;17.73;10.50;;;-3.90;90.00;;;;;;939570;149;27382;-76
2022/12/16 03:47:51;;;;;;;20.00;9.77;;;-3.90;90.10;;;;;;938768;149;27468;-76
2022/12/16 03:50:23;;;;;;;15.03;9.13;;;-3.90;90.00;;;;;;940267;149;27364;-77
2022/12/16 03:52:47;;;;;;;15.97;9.77;;;-3.90;90.00;;;;;;939203;149;27298;-80
2022/12/16 03:55:14;;;;;;;16.40;9.57;;;-3.90;90.00;;;;;;941622;149;27375;-79
2022/12/16 03:57:40;;;;;;;14.03;8.47;;;-4.00;90.00;;;;;;939732;149;27364;-80
2022/12/16 04:00:08;;;;;;;14.03;9.57;;;-4.00;90.00;;;;;;940929;149;27438;-81
2022/12/16 04:02:34;;;;;;;14.47;8.90;;;-4.00;90.00;;;;;;939902;149;27264;-80
2022/12/16 04:05:00;;;;;;;14.27;8.60;;;-4.00;90.10;;;;;;941190;149;27394;-80
2022/12/16 04:07:28;;;;;;;14.87;9.13;;;-4.00;90.10;;;;;;942020;149;27448;-80
2022/12/16 04:09:55;;;;;;;13.93;9.47;;;-4.00;90.10;;;;;;941418;149;27370;-80
2022/12/16 04:25:59;;;;;;;13.90;9.23;;;-4.10;90.30;;;;;;941036;149;27333;-80
2022/12/16 04:28:25;;;;;;;11.93;8.80;;;-4.10;90.30;;;;;;939137;149;27434;-79
2022/12/16 04:30:52;;;;;;;13.33;8.83;;;-4.10;90.30;;;;;;940805;149;27450;-81
